Time;durP1;ratioP1;P1;durP2;ratioP2;P2;SDS_P1;SDS_P2;PMS_P1;PMS_P2;Temp;Humidity;BMP_temperature;BMP_pressure;BME280_temperature;BME280_humidity;BME280_pressure;Samples;Min_cycle;Max_cycle;Signal;HPM_P1;HPM_P2
2023/03/07 00:01:10;;;;;;;32.50;15.87;;;9.90;67.00;;;;;;4944776;28;20206;-77
2023/03/07 00:03:39;;;;;;;37.20;17.17;;;9.90;67.00;;;;;;4946791;28;20230;-77
2023/03/07 00:06:10;;;;;;;38.83;19.43;;;9.80;66.90;;;;;;4947818;28;20198;-77
2023/03/07 00:08:39;;;;;;;40.93;19.63;;;9.80;66.90;;;;;;4948581;28;20241;-77
2023/03/07 00:11:09;;;;;;;41.03;20.57;;;9.80;67.00;;;;;;4946477;28;20222;-78
2023/03/07 00:13:38;;;;;;;38.20;18.90;;;9.80;67.00;;;;;;4950863;28;20194;-77
2023/03/07 00:16:09;;;;;;;38.50;19.73;;;9.80;67.10;;;;;;4947361;28;20210;-76
2023/03/07 00:18:37;;;;;;;41.93;19.77;;;9.80;67.20;;;;;;4948835;28;20246;-77
2023/03/07 00:21:09;;;;;;;46.23;20.43;;;9.70;67.20;;;;;;4947774;28;20203;-78
2023/03/07 00:23:40;;;;;;;39.30;18.43;;;9.70;67.20;;;;;;4948501;28;20625;-76
2023/03/07 00:26:11;;;;;;;38.97;19.47;;;9.70;67.20;;;;;;4950915;28;20202;-78
2023/03/07 00:28:40;;;;;;;36.70;19.10;;;9.70;67.20;;;;;;4939997;28;20254;-78
2023/03/07 00:31:10;;;;;;;40.73;20.00;;;9.70;67.30;;;;;;4941738;28;20218;-76
2023/03/07 00:33:40;;;;;;;40.30;17.97;;;9.60;67.20;;;;;;4950340;28;20199;-76
2023/03/07 00:36:13;;;;;;;41.77;20.27;;;9.60;67.20;;;;;;4951340;28;20671;-76
2023/03/07 00:38:42;;;;;;;45.23;19.13;;;9.60;67.40;;;;;;4950691;28;20620;-76
2023/03/07 00:41:12;;;;;;;44.63;19.73;;;9.50;67.30;;;;;;4947045;28;20306;-77
2023/03/07 00:43:42;;;;;;;43.20;20.17;;;9.50;67.40;;;;;;4948826;28;20194;-77
2023/03/07 00:46:10;;;;;;;39.23;19.07;;;9.50;67.50;;;;;;4943283;28;20195;-77
2023/03/07 00:48:39;;;;;;;39.37;19.33;;;9.50;67.50;;;;;;4937559;28;20754;-77
2023/03/07 00:51:11;;;;;;;43.23;20.20;;;9.40;67.40;;;;;;4945387;28;20202;-77
2023/03/07 00:53:40;;;;;;;45.20;19.17;;;9.40;67.40;;;;;;4944281;28;20214;-77
2023/03/07 00:56:13;;;;;;;41.83;20.90;;;9.30;67.40;;;;;;4949838;28;20203;-78
2023/03/07 00:58:42;;;;;;;42.27;20.37;;;9.20;67.40;;;;;;4947620;28;20217;-79
2023/03/07 01:01:13;;;;;;;48.93;21.77;;;9.20;67.50;;;;;;4942579;28;20292;-77
2023/03/07 01:03:42;;;;;;;45.77;20.10;;;9.10;67.70;;;;;;4943794;28;20973;-79
2023/03/07 01:06:15;;;;;;;46.07;20.00;;;9.10;67.60;;;;;;4951497;28;20210;-77
2023/03/07 01:08:44;;;;;;;49.37;21.17;;;9.10;67.70;;;;;;4952138;28;20202;-78
2023/03/07 01:11:13;;;;;;;41.83;20.50;;;9.00;67.90;;;;;;4944995;28;20237;-77
2023/03/07 01:13:41;;;;;;;43.00;21.60;;;8.90;68.30;;;;;;4944990;28;20221;-78
2023/03/07 01:16:12;;;;;;;42.20;20.83;;;8.90;68.80;;;;;;4942651;28;20206;-78
2023/03/07 01:18:41;;;;;;;42.30;20.03;;;8.80;68.70;;;;;;4943794;28;20210;-77
2023/03/07 01:21:17;;;;;;;46.20;20.40;;;8.80;68.80;;;;;;4951594;28;20205;-78
2023/03/07 01:23:46;;;;;;;49.90;21.97;;;8.70;69.00;;;;;;4944286;28;20202;-78
2023/03/07 01:26:15;;;;;;;46.47;21.40;;;8.60;68.90;;;;;;4953914;28;20237;-78
2023/03/07 01:28:44;;;;;;;49.90;21.77;;;8.60;69.20;;;;;;4951082;28;20266;-79
2023/03/07 01:31:13;;;;;;;42.07;20.13;;;8.50;69.40;;;;;;4948768;28;20237;-77
2023/03/07 01:33:41;;;;;;;43.17;21.17;;;8.50;69.40;;;;;;4942155;28;20209;-78
2023/03/07 01:36:18;;;;;;;49.10;21.53;;;8.40;69.40;;;;;;4950293;28;20261;-78
2023/03/07 01:38:48;;;;;;;48.30;21.43;;;8.40;69.40;;;;;;4951960;28;20198;-77
2023/03/07 01:41:17;;;;;;;42.20;21.00;;;8.40;69.40;;;;;;4950309;28;20219;-77
2023/03/07 01:43:45;;;;;;;44.40;20.57;;;8.40;69.50;;;;;;4946013;28;20293;-78
2023/03/07 01:46:41;;;;;;;42.10;20.60;;;8.30;69.50;;;;;;4949071;28;20237;-77
2023/03/07 01:49:18;;;;;;;46.30;21.40;;;8.30;69.70;;;;;;4948198;28;20226;-77
2023/03/07 01:51:51;;;;;;;47.07;21.50;;;8.30;69.80;;;;;;4942395;28;20198;-77
2023/03/07 01:54:21;;;;;;;47.67;20.90;;;8.20;69.80;;;;;;4956636;28;20667;-78
2023/03/07 01:56:51;;;;;;;49.87;21.70;;;8.20;70.00;;;;;;4953345;28;20229;-78
2023/03/07 01:59:28;;;;;;;46.37;21.73;;;8.20;70.10;;;;;;4946429;29;20229;-77
2023/03/07 02:02:00;;;;;;;50.33;21.37;;;8.10;70.10;;;;;;4943119;28;20204;-78
2023/03/07 02:04:33;;;;;;;45.03;21.23;;;8.10;70.20;;;;;;4950031;28;20303;-78
2023/03/07 02:07:03;;;;;;;44.97;21.27;;;8.10;70.20;;;;;;4953958;28;20201;-77
2023/03/07 02:09:35;;;;;;;49.93;22.13;;;8.00;70.20;;;;;;4952013;28;20202;-76
2023/03/07 02:12:04;;;;;;;52.03;22.03;;;8.00;70.30;;;;;;4949490;28;20248;-77
2023/03/07 02:14:33;;;;;;;43.77;20.73;;;8.00;70.30;;;;;;4953034;28;20214;-77
2023/03/07 02:17:01;;;;;;;41.93;20.17;;;8.00;70.50;;;;;;4950503;28;20652;-77
2023/03/07 02:19:43;;;;;;;43.17;20.10;;;7.90;70.40;;;;;;4953026;28;20640;-77
2023/03/07 02:22:16;;;;;;;41.30;19.77;;;7.90;70.50;;;;;;4949222;28;20201;-77
2023/03/07 02:24:51;;;;;;;44.33;19.27;;;7.90;70.40;;;;;;4947462;28;20197;-78
2023/03/07 02:27:22;;;;;;;43.40;20.37;;;7.90;70.50;;;;;;4948137;28;20686;-77
2023/03/07 02:29:50;;;;;;;41.20;20.80;;;7.90;70.50;;;;;;4950542;28;20264;-77
2023/03/07 02:32:19;;;;;;;39.87;19.40;;;7.90;70.80;;;;;;4948014;28;20612;-78
2023/03/07 02:34:48;;;;;;;43.90;19.23;;;7.80;70.80;;;;;;4953382;28;20201;-77
2023/03/07 02:37:21;;;;;;;41.20;20.43;;;7.80;71.00;;;;;;4952283;28;20265;-77
2023/03/07 02:39:49;;;;;;;50.57;20.63;;;7.80;71.00;;;;;;4939918;28;20346;-77
2023/03/07 02:42:22;;;;;;;37.77;19.90;;;7.80;71.20;;;;;;4951063;28;20208;-78
2023/03/07 02:44:57;;;;;;;49.80;20.40;;;7.70;71.20;;;;;;4952027;28;20761;-77
2023/03/07 02:47:25;;;;;;;42.50;20.17;;;7.70;71.20;;;;;;4945116;28;20207;-78
2023/03/07 02:49:54;;;;;;;42.03;20.27;;;7.70;71.20;;;;;;4944234;28;20620;-77
2023/03/07 02:52:23;;;;;;;37.87;20.00;;;7.70;71.20;;;;;;4945793;28;20617;-75
2023/03/07 02:54:51;;;;;;;43.23;20.43;;;7.70;71.20;;;;;;4937845;28;20211;-77
2023/03/07 02:57:21;;;;;;;48.40;20.93;;;7.70;71.30;;;;;;4945264;28;20208;-77
2023/03/07 02:59:50;;;;;;;42.83;20.23;;;7.70;71.30;;;;;;4935830;28;20231;-76
2023/03/07 03:02:18;;;;;;;43.40;20.07;;;7.70;71.40;;;;;;4941444;28;20231;-77
2023/03/07 03:04:46;;;;;;;45.60;19.90;;;7.60;71.30;;;;;;4945025;28;20241;-77
2023/03/07 03:07:15;;;;;;;46.87;20.67;;;7.60;71.50;;;;;;4938990;28;20195;-77
2023/03/07 03:09:46;;;;;;;41.93;20.33;;;7.60;71.50;;;;;;4938782;28;20655;-78
2023/03/07 03:12:14;;;;;;;41.70;19.47;;;7.60;71.50;;;;;;4938911;28;20449;-77
2023/03/07 03:14:44;;;;;;;49.63;20.63;;;7.50;71.50;;;;;;4946465;28;20579;-77
2023/03/07 03:17:13;;;;;;;46.10;20.70;;;7.50;71.60;;;;;;4951404;28;20202;-77
2023/03/07 03:19:41;;;;;;;45.73;19.83;;;7.50;71.60;;;;;;4953020;28;20260;-77
2023/03/07 03:22:10;;;;;;;45.93;20.80;;;7.50;71.60;;;;;;4945015;28;20243;-77
2023/03/07 03:24:39;;;;;;;42.23;20.53;;;7.50;72.60;;;;;;4943039;28;20243;-77
2023/03/07 03:27:08;;;;;;;47.93;20.47;;;7.40;71.80;;;;;;4951538;28;20710;-77
2023/03/07 03:29:36;;;;;;;40.60;20.50;;;7.40;71.80;;;;;;4950932;28;20211;-77
2023/03/07 03:32:07;;;;;;;46.27;20.90;;;7.40;71.80;;;;;;4942885;28;20209;-77
2023/03/07 03:34:35;;;;;;;40.67;20.03;;;7.40;71.90;;;;;;4939011;28;20204;-77
2023/03/07 03:37:06;;;;;;;39.90;19.57;;;7.40;71.90;;;;;;4948123;28;20204;-77
2023/03/07 03:39:35;;;;;;;41.87;20.13;;;7.30;71.90;;;;;;4944390;28;20755;-77
2023/03/07 03:42:05;;;;;;;39.57;19.37;;;7.40;72.00;;;;;;4953961;28;20218;-77
2023/03/07 03:44:33;;;;;;;41.00;19.27;;;7.30;72.90;;;;;;4946844;28;20217;-77
2023/03/07 03:47:01;;;;;;;49.70;20.07;;;7.30;72.20;;;;;;4946535;28;20273;-77
2023/03/07 03:49:31;;;;;;;43.40;20.90;;;7.30;72.40;;;;;;4949306;28;20259;-77
2023/03/07 03:52:00;;;;;;;45.37;20.40;;;7.30;72.60;;;;;;4944483;28;20199;-77
2023/03/07 03:54:29;;;;;;;37.43;19.00;;;7.30;72.90;;;;;;4948895;28;20239;-78
2023/03/07 03:56:58;;;;;;;42.30;19.57;;;7.30;73.00;;;;;;4947569;28;20212;-76
2023/03/07 03:59:26;;;;;;;41.17;19.60;;;7.30;73.20;;;;;;4945858;28;20204;-77
2023/03/07 04:01:55;;;;;;;42.20;20.43;;;7.30;73.40;;;;;;4951736;28;20813;-78
2023/03/07 04:04:23;;;;;;;44.43;21.27;;;7.30;73.60;;;;;;4956498;28;20307;-76
2023/03/07 04:06:53;;;;;;;45.50;19.87;;;7.30;73.60;;;;;;4946368;28;20199;-77
2023/03/07 04:09:21;;;;;;;46.05;23.98;;;7.30;73.70;;;;;;4953418;28;20466;-77
2023/03/07 04:11:49;;;;;;;44.83;21.73;;;7.30;74.70;;;;;;4949394;28;20718;-77
2023/03/07 04:14:18;;;;;;;44.20;20.83;;;7.30;74.70;;;;;;4953123;28;20208;-77
2023/03/07 04:16:47;;;;;;;44.73;20.50;;;7.30;74.90;;;;;;4955705;28;20198;-77
2023/03/07 04:19:16;;;;;;;52.08;21.45;;;7.30;75.10;;;;;;4950351;28;20455;-77
2023/03/07 04:21:44;;;;;;;47.73;21.07;;;7.30;75.00;;;;;;4954091;28;20222;-77
2023/03/07 04:24:14;;;;;;;50.23;22.03;;;7.30;75.00;;;;;;4941177;28;20243;-76
2023/03/07 04:26:42;;;;;;;47.07;20.20;;;7.30;75.00;;;;;;4953559;28;20709;-78
2023/03/07 04:29:11;;;;;;;49.40;19.83;;;7.40;75.10;;;;;;4954560;28;20201;-77
2023/03/07 04:31:39;;;;;;;47.47;21.33;;;7.40;75.30;;;;;;4956191;28;20716;-77
2023/03/07 04:34:07;;;;;;;44.83;20.07;;;7.40;75.30;;;;;;4952360;28;20203;-76
2023/03/07 04:36:35;;;;;;;40.43;20.33;;;7.40;75.20;;;;;;4949732;28;20216;-77
2023/03/07 04:39:04;;;;;;;45.83;20.13;;;7.50;75.20;;;;;;4961135;28;20209;-76
2023/03/07 04:41:34;;;;;;;47.63;21.17;;;7.50;75.30;;;;;;4952973;28;20714;-77
2023/03/07 04:44:02;;;;;;;47.57;20.43;;;7.50;75.20;;;;;;4950299;28;20212;-77
2023/03/07 04:46:31;;;;;;;46.27;21.80;;;7.60;75.20;;;;;;4948822;28;20205;-77
2023/03/07 04:48:59;;;;;;;43.53;21.10;;;7.60;75.20;;;;;;4945194;28;20210;-77
2023/03/07 04:51:27;;;;;;;45.70;21.03;;;7.60;75.30;;;;;;4952424;28;20657;-77
2023/03/07 04:53:56;;;;;;;44.10;22.07;;;7.60;75.30;;;;;;4950149;28;20228;-78
2023/03/07 04:56:24;;;;;;;44.43;20.57;;;7.60;75.40;;;;;;4951208;28;20208;-77
2023/03/07 04:58:54;;;;;;;58.03;23.70;;;7.60;75.40;;;;;;4955785;28;20237;-77
2023/03/07 05:01:22;;;;;;;51.73;23.20;;;7.60;75.30;;;;;;4945427;28;20311;-77
2023/03/07 05:03:51;;;;;;;50.03;22.53;;;7.70;76.20;;;;;;4937692;28;20201;-78
2023/03/07 05:06:20;;;;;;;45.50;22.30;;;7.70;75.00;;;;;;4952910;28;20201;-77
2023/03/07 05:08:48;;;;;;;52.03;23.43;;;7.70;75.00;;;;;;4950686;28;20240;-77
2023/03/07 05:11:16;;;;;;;43.77;21.57;;;7.70;75.00;;;;;;4948862;28;20296;-77
2023/03/07 05:13:45;;;;;;;64.80;24.70;;;7.70;75.00;;;;;;4952916;28;20648;-77
2023/03/07 05:16:16;;;;;;;46.37;21.13;;;7.70;75.00;;;;;;4948291;28;20202;-76
2023/03/07 05:18:44;;;;;;;48.03;22.73;;;7.70;75.00;;;;;;4956164;28;20202;-77
2023/03/07 05:21:13;;;;;;;51.80;22.57;;;7.70;75.00;;;;;;4945264;28;20223;-78
2023/03/07 05:23:41;;;;;;;47.70;22.00;;;7.70;75.00;;;;;;4944589;28;20256;-79
2023/03/07 05:26:09;;;;;;;58.87;24.90;;;7.70;75.00;;;;;;4939663;28;20805;-76
2023/03/07 05:28:38;;;;;;;54.90;24.97;;;7.70;75.00;;;;;;4938167;28;20258;-77
2023/03/07 05:31:06;;;;;;;57.90;24.90;;;7.70;74.90;;;;;;4948426;28;20745;-76
2023/03/07 05:33:36;;;;;;;52.53;22.17;;;7.70;74.90;;;;;;4949989;28;20209;-78
2023/03/07 05:36:05;;;;;;;58.47;23.03;;;7.80;74.90;;;;;;4950779;28;20204;-77
2023/03/07 05:38:34;;;;;;;46.80;22.73;;;7.80;74.80;;;;;;4947447;28;20275;-76
2023/03/07 05:41:02;;;;;;;45.60;22.57;;;7.80;74.70;;;;;;4944570;28;20214;-77
2023/03/07 05:43:30;;;;;;;60.73;25.10;;;7.80;74.70;;;;;;4951358;28;20231;-77
2023/03/07 05:45:59;;;;;;;51.13;26.03;;;7.80;74.80;;;;;;4952717;28;20209;-77
2023/03/07 05:48:27;;;;;;;58.10;27.03;;;7.90;75.00;;;;;;4952897;28;20297;-77
2023/03/07 05:50:59;;;;;;;58.50;27.80;;;7.90;75.10;;;;;;4946722;28;20201;-77
2023/03/07 05:53:27;;;;;;;54.73;25.07;;;7.90;75.20;;;;;;4944293;28;20201;-78
2023/03/07 05:55:58;;;;;;;64.23;27.17;;;7.90;75.30;;;;;;4953153;28;20207;-79
2023/03/07 05:58:29;;;;;;;63.13;26.73;;;7.90;75.20;;;;;;4946754;28;20681;-76
2023/03/07 06:00:58;;;;;;;56.47;26.13;;;8.00;75.20;;;;;;4950587;28;20195;-77
2023/03/07 06:03:26;;;;;;;59.30;24.70;;;8.00;75.20;;;;;;4952354;28;20237;-77
2023/03/07 06:05:54;;;;;;;57.07;26.63;;;8.00;75.20;;;;;;4954318;28;20215;-76
2023/03/07 06:08:24;;;;;;;53.70;26.50;;;8.00;75.30;;;;;;4947994;28;21190;-78
2023/03/07 06:10:54;;;;;;;56.57;25.03;;;8.10;75.40;;;;;;4945476;28;20777;-77
2023/03/07 06:13:25;;;;;;;54.80;25.77;;;8.20;75.50;;;;;;4951583;28;20197;-76
2023/03/07 06:15:55;;;;;;;54.73;24.67;;;8.20;75.70;;;;;;4956114;28;20662;-77
2023/03/07 06:18:25;;;;;;;53.03;25.67;;;8.30;75.70;;;;;;4948617;28;20209;-77
2023/03/07 06:20:58;;;;;;;57.13;25.70;;;8.40;75.70;;;;;;4953642;28;20554;-77
2023/03/07 06:23:30;;;;;;;57.13;24.53;;;8.50;75.70;;;;;;4950834;28;20269;-77
2023/03/07 06:25:58;;;;;;;57.80;25.97;;;8.60;75.70;;;;;;4950230;28;20209;-76
2023/03/07 06:28:27;;;;;;;52.10;23.67;;;8.70;75.70;;;;;;4949219;28;20564;-76
2023/03/07 06:30:57;;;;;;;53.40;23.87;;;8.80;75.60;;;;;;4948051;29;20277;-78
2023/03/07 06:33:25;;;;;;;41.90;22.80;;;8.90;75.50;;;;;;4941051;28;20571;-76
2023/03/07 06:35:54;;;;;;;51.53;23.43;;;9.00;75.30;;;;;;4947085;28;20199;-76
2023/03/07 06:38:22;;;;;;;52.47;23.73;;;9.10;75.00;;;;;;4948332;28;20209;-77
2023/03/07 06:40:56;;;;;;;53.13;23.17;;;9.20;74.70;;;;;;4939478;28;20231;-77
2023/03/07 06:43:25;;;;;;;51.27;24.83;;;9.30;74.60;;;;;;4942330;28;20214;-78
2023/03/07 06:45:53;;;;;;;51.73;22.63;;;9.40;74.10;;;;;;4938832;28;20197;-78
2023/03/07 06:48:22;;;;;;;42.07;21.13;;;9.40;73.80;;;;;;4951265;28;20293;-76
2023/03/07 06:50:50;;;;;;;42.30;22.37;;;9.50;73.10;;;;;;4949229;28;20256;-77
2023/03/07 06:53:19;;;;;;;44.23;20.47;;;9.50;72.10;;;;;;4947658;28;20589;-77
2023/03/07 06:55:49;;;;;;;44.50;20.80;;;9.60;73.40;;;;;;4947505;28;20206;-77
2023/03/07 06:58:19;;;;;;;45.03;21.57;;;9.70;72.80;;;;;;4942066;28;20237;-77
2023/03/07 07:00:48;;;;;;;44.83;20.47;;;9.80;72.80;;;;;;4940805;28;20230;-76
2023/03/07 07:03:18;;;;;;;42.70;19.07;;;9.90;72.70;;;;;;4951364;28;20230;-77
2023/03/07 07:05:47;;;;;;;32.47;15.80;;;9.90;72.60;;;;;;4949164;28;20206;-76
2023/03/07 07:08:15;;;;;;;30.87;14.87;;;10.00;71.80;;;;;;4953710;28;20202;-76
2023/03/07 07:10:43;;;;;;;31.83;14.37;;;10.10;71.80;;;;;;4942374;28;20702;-77
2023/03/07 07:13:12;;;;;;;35.20;16.45;;;10.20;71.40;;;;;;4943927;28;20496;-76
2023/03/07 07:15:42;;;;;;;35.83;17.53;;;10.30;70.50;;;;;;4940818;28;20193;-77
2023/03/07 07:18:13;;;;;;;32.50;16.20;;;10.30;70.50;;;;;;4957070;28;20277;-76
2023/03/07 07:20:41;;;;;;;33.63;16.80;;;10.40;70.60;;;;;;4945328;28;20655;-77
2023/03/07 07:23:10;;;;;;;35.43;16.33;;;10.50;70.50;;;;;;4940830;28;20231;-76
2023/03/07 07:25:52;;;;;;;38.90;16.57;;;10.60;70.00;;;;;;4906361;28;20202;-77
2023/03/07 07:28:24;;;;;;;43.50;17.40;;;10.70;70.00;;;;;;4950462;28;20906;-77
2023/03/07 07:30:55;;;;;;;36.20;17.47;;;10.80;69.50;;;;;;4946692;28;20230;-76
2023/03/07 07:33:23;;;;;;;38.27;18.83;;;10.90;69.00;;;;;;4941383;28;20723;-77
2023/03/07 07:35:51;;;;;;;43.43;20.17;;;10.90;68.60;;;;;;4948313;28;20570;-77
2023/03/07 07:38:20;;;;;;;46.50;19.40;;;11.10;68.50;;;;;;4944195;28;20545;-76
2023/03/07 07:40:48;;;;;;;40.33;19.33;;;11.10;68.50;;;;;;4961096;28;20194;-77
2023/03/07 07:43:18;;;;;;;45.10;19.77;;;11.20;67.20;;;;;;4950905;28;20250;-77
2023/03/07 07:45:46;;;;;;;44.33;17.20;;;11.30;68.00;;;;;;4957994;28;20194;-77
2023/03/07 07:48:16;;;;;;;30.67;15.53;;;11.40;67.80;;;;;;4956666;28;20231;-76
2023/03/07 07:50:44;;;;;;;34.93;15.73;;;11.50;67.80;;;;;;4964951;28;20253;-76
2023/03/07 07:53:15;;;;;;;43.23;16.43;;;11.50;66.20;;;;;;4953718;28;20191;-77
2023/03/07 07:55:44;;;;;;;31.50;15.37;;;11.60;66.00;;;;;;4949484;28;20704;-77
2023/03/07 07:58:13;;;;;;;29.67;13.53;;;11.70;65.80;;;;;;4949896;28;20198;-77
2023/03/07 08:00:41;;;;;;;35.47;15.40;;;11.70;65.80;;;;;;4947647;28;20266;-77
2023/03/07 08:03:09;;;;;;;26.50;12.77;;;11.70;65.10;;;;;;4950068;28;20276;-80
2023/03/07 08:05:44;;;;;;;27.83;13.73;;;11.80;64.40;;;;;;4948574;28;20574;-76
2023/03/07 08:08:12;;;;;;;31.07;14.77;;;11.90;64.80;;;;;;4951664;28;20211;-78
2023/03/07 08:10:42;;;;;;;31.53;14.83;;;12.00;64.40;;;;;;4947694;28;20234;-77
2023/03/07 08:13:12;;;;;;;37.17;15.93;;;12.00;64.00;;;;;;4952512;28;20539;-77
2023/03/07 08:15:41;;;;;;;35.50;15.93;;;12.10;64.20;;;;;;4954920;28;20199;-77
2023/03/07 08:18:19;;;;;;;32.90;16.27;;;12.20;64.20;;;;;;4950831;28;20213;-78
2023/03/07 08:20:49;;;;;;;33.53;16.70;;;12.30;64.70;;;;;;4955767;28;20231;-76
2023/03/07 08:23:17;;;;;;;30.07;15.33;;;12.30;63.90;;;;;;4950823;28;20563;-76
2023/03/07 08:25:46;;;;;;;31.00;15.40;;;12.40;64.20;;;;;;4955465;28;20678;-76
2023/03/07 08:28:14;;;;;;;32.47;16.47;;;12.50;63.90;;;;;;4944602;28;20296;-77
2023/03/07 08:30:43;;;;;;;27.17;15.17;;;12.60;63.60;;;;;;4947386;28;20215;-76
2023/03/07 08:33:11;;;;;;;33.03;15.37;;;12.70;64.00;;;;;;4945041;28;20854;-78
2023/03/07 08:35:40;;;;;;;27.00;12.20;;;12.70;63.60;;;;;;4952774;28;20261;-77
2023/03/07 08:38:10;;;;;;;22.33;11.93;;;12.70;62.60;;;;;;4951330;28;20722;-77
2023/03/07 08:40:38;;;;;;;27.20;13.47;;;12.80;62.80;;;;;;4952873;28;20257;-77
2023/03/07 08:43:07;;;;;;;29.37;14.13;;;12.90;62.50;;;;;;4947210;28;20222;-79
2023/03/07 08:45:36;;;;;;;26.87;14.20;;;12.90;62.50;;;;;;4944758;28;20214;-79
2023/03/07 08:48:06;;;;;;;25.40;12.87;;;13.00;63.10;;;;;;4946828;28;20912;-79
2023/03/07 08:50:35;;;;;;;32.33;15.03;;;13.10;63.10;;;;;;4935811;28;20241;-80
2023/03/07 08:53:03;;;;;;;27.43;14.87;;;13.10;62.70;;;;;;4949126;28;20199;-78
2023/03/07 08:55:35;;;;;;;27.53;13.43;;;13.20;62.50;;;;;;4943447;29;20206;-78
2023/03/07 08:58:05;;;;;;;28.97;14.83;;;13.30;62.40;;;;;;4942091;28;20194;-78
2023/03/07 09:00:33;;;;;;;27.77;15.13;;;13.40;63.00;;;;;;4945056;28;20221;-76
2023/03/07 09:03:02;;;;;;;33.10;15.87;;;13.40;63.00;;;;;;4955115;28;20289;-77
2023/03/07 09:05:30;;;;;;;32.43;15.30;;;13.50;63.20;;;;;;4940738;28;20203;-80
2023/03/07 09:07:59;;;;;;;25.63;13.53;;;13.60;62.80;;;;;;4947865;28;20202;-76
2023/03/07 09:10:27;;;;;;;31.93;14.17;;;13.70;62.50;;;;;;4942271;28;20227;-80
2023/03/07 09:12:57;;;;;;;24.97;12.57;;;13.70;62.10;;;;;;4945742;28;20210;-79
2023/03/07 09:15:26;;;;;;;21.70;11.93;;;13.80;61.90;;;;;;4948091;28;20232;-78
2023/03/07 09:17:55;;;;;;;23.13;10.63;;;13.90;61.70;;;;;;4936443;28;20253;-76
2023/03/07 09:20:24;;;;;;;23.37;12.17;;;14.00;62.00;;;;;;4940261;28;20678;-76
2023/03/07 09:22:53;;;;;;;22.20;11.90;;;14.10;62.00;;;;;;4934217;28;20210;-78
2023/03/07 09:25:21;;;;;;;25.70;12.83;;;14.20;61.70;;;;;;4938177;28;20610;-77
2023/03/07 09:27:50;;;;;;;24.40;11.70;;;14.30;61.40;;;;;;4942250;28;20207;-78
2023/03/07 09:30:21;;;;;;;19.10;10.10;;;14.40;61.40;;;;;;4934016;28;20564;-79
2023/03/07 09:32:50;;;;;;;18.23;9.00;;;14.50;61.50;;;;;;4948258;29;20210;-77
2023/03/07 09:35:19;;;;;;;20.07;9.17;;;14.70;61.50;;;;;;4941189;28;20202;-77
2023/03/07 09:37:47;;;;;;;23.27;9.30;;;14.70;61.00;;;;;;4954987;28;20197;-78
2023/03/07 09:40:18;;;;;;;20.40;10.03;;;14.80;60.80;;;;;;4949864;28;20352;-77
2023/03/07 09:42:56;;;;;;;17.27;9.80;;;14.90;60.80;;;;;;4933584;28;20198;-79
2023/03/07 09:45:41;;;;;;;21.33;8.90;;;15.00;60.80;;;;;;4945402;29;20245;-77
2023/03/07 09:48:35;;;;;;;17.23;8.17;;;15.20;60.80;;;;;;4952710;28;20205;-78
2023/03/07 09:51:11;;;;;;;22.03;8.03;;;15.20;60.30;;;;;;4947705;28;20252;-78
2023/03/07 09:53:47;;;;;;;22.93;9.73;;;15.30;60.40;;;;;;4963531;28;20198;-79
2023/03/07 09:56:22;;;;;;;18.97;10.03;;;15.40;60.40;;;;;;4943749;29;20272;-78
2023/03/07 09:58:58;;;;;;;20.57;9.37;;;15.50;60.50;;;;;;4949774;28;20791;-78
2023/03/07 10:01:31;;;;;;;16.57;8.03;;;15.60;60.60;;;;;;4951569;28;20281;-77
2023/03/07 10:04:03;;;;;;;16.47;8.33;;;15.70;60.10;;;;;;4954183;28;20214;-78
2023/03/07 10:06:37;;;;;;;13.90;7.67;;;15.70;60.00;;;;;;4943587;28;20651;-77
2023/03/07 10:09:10;;;;;;;14.20;7.30;;;15.80;59.90;;;;;;4945481;28;20198;-78
2023/03/07 10:12:02;;;;;;;12.17;5.93;;;15.90;60.30;;;;;;4938751;28;20235;-77
2023/03/07 10:14:48;;;;;;;11.47;5.70;;;16.00;60.00;;;;;;4943829;28;20195;-78
2023/03/07 10:17:30;;;;;;;16.70;6.60;;;16.10;59.60;;;;;;4941168;28;20233;-77
2023/03/07 10:20:07;;;;;;;15.30;6.90;;;16.30;59.90;;;;;;4945290;28;20198;-78
2023/03/07 10:22:43;;;;;;;16.63;6.20;;;16.30;59.60;;;;;;4945889;28;20233;-76
2023/03/07 10:25:20;;;;;;;13.63;5.87;;;16.50;59.40;;;;;;4953449;28;20209;-77
2023/03/07 10:27:53;;;;;;;12.63;6.00;;;16.60;59.90;;;;;;4941984;29;20607;-76
2023/03/07 10:30:21;;;;;;;18.33;6.47;;;16.70;59.20;;;;;;4944603;29;20269;-75
2023/03/07 10:32:56;;;;;;;13.80;6.53;;;16.70;58.30;;;;;;4945078;28;20210;-77
2023/03/07 10:35:38;;;;;;;17.17;6.50;;;16.80;58.30;;;;;;4947303;28;20206;-75
2023/03/07 10:38:18;;;;;;;14.80;6.73;;;16.80;58.30;;;;;;4939888;28;20195;-77
2023/03/07 10:40:52;;;;;;;18.37;7.40;;;16.90;57.70;;;;;;4934159;28;20924;-77
2023/03/07 10:43:24;;;;;;;11.47;6.13;;;16.90;57.50;;;;;;4935710;28;20214;-77
2023/03/07 10:45:58;;;;;;;10.33;5.17;;;17.00;58.80;;;;;;4943472;28;20211;-77
2023/03/07 10:48:30;;;;;;;11.73;4.60;;;17.00;57.40;;;;;;4942506;28;20201;-78
2023/03/07 10:51:08;;;;;;;18.60;6.03;;;16.90;56.60;;;;;;4943386;28;20240;-76
2023/03/07 10:53:39;;;;;;;12.57;5.70;;;17.00;57.50;;;;;;4938939;28;20206;-76
2023/03/07 10:56:14;;;;;;;11.13;5.10;;;17.00;57.20;;;;;;4945725;28;20289;-76
2023/03/07 10:59:08;;;;;;;14.03;5.63;;;17.10;57.00;;;;;;4940712;28;20817;-76
2023/03/07 11:01:38;;;;;;;11.80;4.73;;;17.10;56.30;;;;;;4947900;28;20234;-75
2023/03/07 11:04:20;;;;;;;9.83;4.97;;;17.10;55.80;;;;;;4944090;28;21834;-77
2023/03/07 11:06:52;;;;;;;13.37;4.60;;;17.10;56.10;;;;;;4931117;28;20198;-77
2023/03/07 11:09:28;;;;;;;11.63;4.90;;;17.20;56.50;;;;;;4941247;28;20206;-75
2023/03/07 11:11:58;;;;;;;12.23;5.37;;;17.30;56.40;;;;;;4948525;28;20272;-76
2023/03/07 11:14:29;;;;;;;14.27;4.63;;;17.40;55.50;;;;;;4941516;28;20310;-77
2023/03/07 11:16:59;;;;;;;12.67;4.73;;;17.40;56.00;;;;;;4941714;28;20191;-77
2023/03/07 11:19:35;;;;;;;14.80;4.70;;;17.50;56.40;;;;;;4942173;28;20214;-77
2023/03/07 11:22:16;;;;;;;10.00;4.40;;;17.60;56.30;;;;;;4936403;28;20202;-76
2023/03/07 11:24:50;;;;;;;12.93;4.70;;;17.60;55.30;;;;;;4950405;29;20210;-78
2023/03/07 11:27:23;;;;;;;11.03;4.77;;;17.70;55.80;;;;;;4942959;28;20202;-78
2023/03/07 11:30:23;;;;;;;12.87;4.83;;;17.70;55.60;;;;;;4942885;28;20246;-78
2023/03/07 11:33:05;;;;;;;11.27;3.47;;;17.80;55.30;;;;;;4938562;28;20202;-78
2023/03/07 11:35:48;;;;;;;8.20;2.90;;;17.80;54.90;;;;;;4941530;28;20202;-76
2023/03/07 11:38:27;;;;;;;4.87;2.80;;;17.90;54.60;;;;;;4944357;29;20203;-76
2023/03/07 11:41:02;;;;;;;6.60;3.30;;;17.90;54.30;;;;;;4951592;29;20214;-76
2023/03/07 11:43:54;;;;;;;5.70;2.90;;;17.90;54.00;;;;;;4940322;28;20458;-77
2023/03/07 11:46:32;;;;;;;4.93;2.70;;;18.00;54.40;;;;;;4947529;28;20261;-77
2023/03/07 11:49:17;;;;;;;6.97;2.60;;;18.00;54.10;;;;;;4953286;28;20195;-77
2023/03/07 11:52:03;;;;;;;9.23;3.10;;;18.10;53.80;;;;;;4944968;28;20249;-77
2023/03/07 11:54:41;;;;;;;7.93;3.23;;;18.10;52.60;;;;;;4946882;28;20252;-78
2023/03/07 11:57:23;;;;;;;9.13;2.40;;;18.20;52.80;;;;;;4942160;28;20202;-77
2023/03/07 12:00:19;;;;;;;8.63;2.30;;;18.30;51.90;;;;;;4945435;28;20203;-77
2023/03/07 12:03:05;;;;;;;6.13;2.70;;;18.30;52.10;;;;;;4952039;28;20215;-78
2023/03/07 12:05:45;;;;;;;6.23;2.60;;;18.50;52.00;;;;;;4947587;29;20241;-78
2023/03/07 12:08:43;;;;;;;9.77;3.00;;;18.50;52.00;;;;;;4962862;28;20289;-77
2023/03/07 12:11:25;;;;;;;6.43;2.30;;;18.60;51.90;;;;;;4951598;28;20262;-77
2023/03/07 12:14:06;;;;;;;7.53;2.73;;;18.60;51.20;;;;;;4949891;28;20863;-78
2023/03/07 12:16:45;;;;;;;5.37;2.40;;;18.70;51.80;;;;;;4952994;28;20308;-77
2023/03/07 12:19:30;;;;;;;6.10;2.90;;;18.80;51.70;;;;;;4939786;28;20207;-76
2023/03/07 12:22:23;;;;;;;5.50;2.53;;;18.80;51.30;;;;;;4949454;28;20204;-77
2023/03/07 12:25:02;;;;;;;10.33;3.50;;;18.90;50.60;;;;;;4945739;29;20211;-77
2023/03/07 12:27:35;;;;;;;5.17;2.60;;;18.90;50.20;;;;;;4948222;28;20198;-78
2023/03/07 12:30:13;;;;;;;6.17;2.50;;;18.90;50.00;;;;;;4945821;28;20207;-76
2023/03/07 12:32:42;;;;;;;8.07;3.23;;;18.90;50.20;;;;;;4948146;28;20207;-75
2023/03/07 12:35:22;;;;;;;4.40;2.60;;;19.00;50.40;;;;;;4953873;28;20202;-76
2023/03/07 12:37:56;;;;;;;4.47;2.47;;;19.00;50.50;;;;;;4950416;29;20273;-76
2023/03/07 12:40:34;;;;;;;7.07;2.70;;;19.00;50.50;;;;;;4946603;28;20619;-76
2023/03/07 12:43:11;;;;;;;7.13;2.57;;;19.20;50.70;;;;;;4951582;28;20198;-77
2023/03/07 12:45:47;;;;;;;7.23;2.47;;;19.30;50.80;;;;;;4949401;28;20217;-77
2023/03/07 12:48:23;;;;;;;4.80;1.93;;;19.40;50.50;;;;;;4944118;28;20202;-79
2023/03/07 12:50:58;;;;;;;5.78;2.78;;;19.60;50.30;;;;;;4953721;28;20194;-79
2023/03/07 12:53:35;;;;;;;7.82;2.20;;;19.70;49.40;;;;;;4936768;29;20638;-78
2023/03/07 12:56:14;;;;;;;5.47;1.90;;;19.80;49.10;;;;;;4950040;28;20198;-78
2023/03/07 12:58:47;;;;;;;4.70;1.80;;;20.00;49.10;;;;;;4950383;29;20586;-78